sensor_id;sensor_type;location;lat;lon;timestamp;pressure;altitude;pressure_sealevel;temperature;humidity
19736;BME280;32064;49.310;8.646;2022-12-29T00:01:31;100004.63;;;11.42;75.05
19736;BME280;32064;49.310;8.646;2022-12-29T00:03:57;100005.47;;;11.43;74.51
19736;BME280;32064;49.310;8.646;2022-12-29T00:06:23;100001.16;;;11.42;73.83
19736;BME280;32064;49.310;8.646;2022-12-29T00:08:48;100002.13;;;11.41;73.77
19736;BME280;32064;49.310;8.646;2022-12-29T00:11:24;100006.69;;;11.39;73.85
19736;BME280;32064;49.310;8.646;2022-12-29T00:13:51;99996.72;;;11.42;73.58
19736;BME280;32064;49.310;8.646;2022-12-29T00:16:36;100001.75;;;11.45;74.70
19736;BME280;32064;49.310;8.646;2022-12-29T00:19:03;100006.53;;;11.52;74.95
19736;BME280;32064;49.310;8.646;2022-12-29T00:21:28;100001.88;;;11.55;73.66
19736;BME280;32064;49.310;8.646;2022-12-29T00:24:16;100002.44;;;11.59;74.47
19736;BME280;32064;49.310;8.646;2022-12-29T00:29:49;99993.78;;;11.68;73.22
19736;BME280;32064;49.310;8.646;2022-12-29T00:32:33;99997.00;;;11.72;73.38
19736;BME280;32064;49.310;8.646;2022-12-29T00:37:49;99999.03;;;11.79;73.17
19736;BME280;32064;49.310;8.646;2022-12-29T00:40:34;100000.47;;;11.83;73.03
19736;BME280;32064;49.310;8.646;2022-12-29T00:43:17;100003.69;;;11.87;73.88
19736;BME280;32064;49.310;8.646;2022-12-29T00:46:01;100000.81;;;11.90;73.44
19736;BME280;32064;49.310;8.646;2022-12-29T00:48:27;100000.66;;;11.91;74.21
19736;BME280;32064;49.310;8.646;2022-12-29T00:51:10;100002.13;;;11.96;73.77
19736;BME280;32064;49.310;8.646;2022-12-29T00:53:36;99998.84;;;12.03;72.47
19736;BME280;32064;49.310;8.646;2022-12-29T00:56:01;100009.00;;;12.08;73.16
19736;BME280;32064;49.310;8.646;2022-12-29T00:58:30;100009.34;;;12.15;72.24
19736;BME280;32064;49.310;8.646;2022-12-29T01:01:03;100015.19;;;12.18;71.57
19736;BME280;32064;49.310;8.646;2022-12-29T01:03:29;100017.31;;;12.24;73.08
19736;BME280;32064;49.310;8.646;2022-12-29T01:05:54;100018.97;;;12.25;71.50
19736;BME280;32064;49.310;8.646;2022-12-29T01:08:20;100019.44;;;12.30;72.60
19736;BME280;32064;49.310;8.646;2022-12-29T01:10:45;100024.59;;;12.32;71.45
19736;BME280;32064;49.310;8.646;2022-12-29T01:13:10;100029.47;;;12.36;71.29
19736;BME280;32064;49.310;8.646;2022-12-29T01:15:36;100020.47;;;12.39;71.92
19736;BME280;32064;49.310;8.646;2022-12-29T01:18:01;100016.16;;;12.38;73.02
19736;BME280;32064;49.310;8.646;2022-12-29T01:20:27;100023.09;;;12.39;72.60
19736;BME280;32064;49.310;8.646;2022-12-29T01:22:53;100021.06;;;12.43;72.43
19736;BME280;32064;49.310;8.646;2022-12-29T01:25:19;100009.53;;;12.44;74.60
19736;BME280;32064;49.310;8.646;2022-12-29T01:27:44;100012.75;;;12.47;73.65
19736;BME280;32064;49.310;8.646;2022-12-29T01:30:10;100026.50;;;12.51;72.83
19736;BME280;32064;49.310;8.646;2022-12-29T01:32:35;100016.66;;;12.53;73.66
19736;BME280;32064;49.310;8.646;2022-12-29T01:35:01;100013.06;;;12.54;74.25
19736;BME280;32064;49.310;8.646;2022-12-29T01:37:26;100018.47;;;12.52;73.23
19736;BME280;32064;49.310;8.646;2022-12-29T01:39:51;100013.75;;;12.56;73.19
19736;BME280;32064;49.310;8.646;2022-12-29T01:42:19;100018.94;;;12.57;73.11
19736;BME280;32064;49.310;8.646;2022-12-29T01:44:51;100017.84;;;12.60;74.59
19736;BME280;32064;49.310;8.646;2022-12-29T01:47:29;100015.19;;;12.60;74.40
19736;BME280;32064;49.310;8.646;2022-12-29T01:49:57;100012.16;;;12.65;74.03
19736;BME280;32064;49.310;8.646;2022-12-29T01:52:26;100017.31;;;12.66;73.47
19736;BME280;32064;49.310;8.646;2022-12-29T01:54:55;100019.53;;;12.71;73.35
19736;BME280;32064;49.310;8.646;2022-12-29T01:57:25;100017.50;;;12.74;73.15
19736;BME280;32064;49.310;8.646;2022-12-29T02:00:05;100014.03;;;12.74;73.89
19736;BME280;32064;49.310;8.646;2022-12-29T02:02:33;100003.75;;;12.80;74.56
19736;BME280;32064;49.310;8.646;2022-12-29T02:05:11;100004.59;;;12.81;76.07
19736;BME280;32064;49.310;8.646;2022-12-29T02:07:39;100009.16;;;12.79;76.20
19736;BME280;32064;49.310;8.646;2022-12-29T02:10:05;100001.84;;;12.83;75.56
19736;BME280;32064;49.310;8.646;2022-12-29T02:12:31;100012.50;;;12.81;76.17
19736;BME280;32064;49.310;8.646;2022-12-29T02:15:00;100005.69;;;12.78;77.75
19736;BME280;32064;49.310;8.646;2022-12-29T02:18:29;100007.63;;;12.76;77.38
19736;BME280;32064;49.310;8.646;2022-12-29T02:32:01;99997.06;;;12.76;76.97
19736;BME280;32064;49.310;8.646;2022-12-29T02:34:53;100017.50;;;12.74;78.66
19736;BME280;32064;49.310;8.646;2022-12-29T02:37:26;100010.72;;;12.81;77.75
19736;BME280;32064;49.310;8.646;2022-12-29T02:40:23;100010.03;;;12.79;78.77
19736;BME280;32064;49.310;8.646;2022-12-29T02:50:43;99992.81;;;12.85;79.23
19736;BME280;32064;49.310;8.646;2022-12-29T02:53:15;99991.00;;;12.86;78.33
19736;BME280;32064;49.310;8.646;2022-12-29T02:55:49;99986.00;;;12.83;78.52
19736;BME280;32064;49.310;8.646;2022-12-29T02:58:20;99987.78;;;12.82;79.90
19736;BME280;32064;49.310;8.646;2022-12-29T03:03:48;99988.03;;;12.79;79.51
19736;BME280;32064;49.310;8.646;2022-12-29T03:06:35;99983.47;;;12.81;79.15
19736;BME280;32064;49.310;8.646;2022-12-29T03:09:24;99976.66;;;12.78;80.64
19736;BME280;32064;49.310;8.646;2022-12-29T03:17:43;99967.78;;;12.79;80.37
19736;BME280;32064;49.310;8.646;2022-12-29T03:20:17;99971.00;;;12.83;79.43
19736;BME280;32064;49.310;8.646;2022-12-29T03:22:47;99965.00;;;12.81;81.42
19736;BME280;32064;49.310;8.646;2022-12-29T03:27:50;99959.16;;;12.77;80.16
19736;BME280;32064;49.310;8.646;2022-12-29T03:30:18;99955.28;;;12.81;81.29
19736;BME280;32064;49.310;8.646;2022-12-29T03:32:47;99956.97;;;12.83;80.15
19736;BME280;32064;49.310;8.646;2022-12-29T03:35:16;99951.41;;;12.86;81.46
19736;BME280;32064;49.310;8.646;2022-12-29T03:37:59;99939.16;;;12.85;80.94
19736;BME280;32064;49.310;8.646;2022-12-29T03:40:28;99936.25;;;12.88;81.27
19736;BME280;32064;49.310;8.646;2022-12-29T03:42:56;99938.78;;;12.89;80.38
19736;BME280;32064;49.310;8.646;2022-12-29T03:45:23;99936.25;;;12.88;80.39
19736;BME280;32064;49.310;8.646;2022-12-29T03:47:48;99926.97;;;12.93;81.10
19736;BME280;32064;49.310;8.646;2022-12-29T03:50:14;99925.84;;;12.96;80.43
19736;BME280;32064;49.310;8.646;2022-12-29T03:52:39;99917.94;;;12.96;80.94
19736;BME280;32064;49.310;8.646;2022-12-29T03:55:05;99916.28;;;12.95;80.30
19736;BME280;32064;49.310;8.646;2022-12-29T03:57:30;99908.78;;;13.00;79.37
19736;BME280;32064;49.310;8.646;2022-12-29T03:59:56;99900.03;;;12.99;78.93
19736;BME280;32064;49.310;8.646;2022-12-29T04:02:21;99901.44;;;13.03;78.81
19736;BME280;32064;49.310;8.646;2022-12-29T04:04:46;99894.34;;;13.04;78.03
19736;BME280;32064;49.310;8.646;2022-12-29T04:07:12;99894.06;;;13.07;77.84
19736;BME280;32064;49.310;8.646;2022-12-29T04:09:37;99892.00;;;13.11;78.53
19736;BME280;32064;49.310;8.646;2022-12-29T04:12:03;99891.84;;;13.12;78.02
19736;BME280;32064;49.310;8.646;2022-12-29T04:14:28;99887.97;;;13.16;76.60
19736;BME280;32064;49.310;8.646;2022-12-29T04:16:53;99885.19;;;13.18;77.25
19736;BME280;32064;49.310;8.646;2022-12-29T04:19:19;99886.84;;;13.19;76.69
19736;BME280;32064;49.310;8.646;2022-12-29T04:21:44;99877.25;;;13.18;77.76
19736;BME280;32064;49.310;8.646;2022-12-29T04:24:09;99881.31;;;13.22;76.75
19736;BME280;32064;49.310;8.646;2022-12-29T04:26:35;99891.03;;;13.21;76.82
19736;BME280;32064;49.310;8.646;2022-12-29T04:29:00;99882.97;;;13.23;76.43
19736;BME280;32064;49.310;8.646;2022-12-29T04:31:26;99880.09;;;13.26;75.66
19736;BME280;32064;49.310;8.646;2022-12-29T04:33:51;99882.59;;;13.28;76.50
19736;BME280;32064;49.310;8.646;2022-12-29T04:36:16;99881.91;;;13.25;75.70
19736;BME280;32064;49.310;8.646;2022-12-29T04:38:42;99877.16;;;13.29;75.13
19736;BME280;32064;49.310;8.646;2022-12-29T04:41:07;99878.69;;;13.32;75.06
19736;BME280;32064;49.310;8.646;2022-12-29T04:43:32;99883.16;;;13.31;74.71
19736;BME280;32064;49.310;8.646;2022-12-29T04:45:58;99887.88;;;13.37;74.64
19736;BME280;32064;49.310;8.646;2022-12-29T04:48:23;99876.59;;;13.35;74.55
19736;BME280;32064;49.310;8.646;2022-12-29T04:50:49;99886.06;;;13.38;74.51
19736;BME280;32064;49.310;8.646;2022-12-29T04:53:16;99879.53;;;13.42;74.13
19736;BME280;32064;49.310;8.646;2022-12-29T04:55:42;99881.50;;;13.40;73.86
19736;BME280;32064;49.310;8.646;2022-12-29T04:58:07;99885.94;;;13.39;74.22
19736;BME280;32064;49.310;8.646;2022-12-29T05:00:33;99888.44;;;13.41;74.79
19736;BME280;32064;49.310;8.646;2022-12-29T05:02:58;99883.97;;;13.41;74.29
19736;BME280;32064;49.310;8.646;2022-12-29T05:05:24;99876.91;;;13.42;73.67
19736;BME280;32064;49.310;8.646;2022-12-29T05:07:49;99891.63;;;13.44;73.73
19736;BME280;32064;49.310;8.646;2022-12-29T05:10:15;99889.69;;;13.46;73.43
19736;BME280;32064;49.310;8.646;2022-12-29T05:12:41;99894.13;;;13.46;72.65
19736;BME280;32064;49.310;8.646;2022-12-29T05:15:07;99899.44;;;13.46;73.12
19736;BME280;32064;49.310;8.646;2022-12-29T05:17:33;99893.03;;;13.48;73.75
19736;BME280;32064;49.310;8.646;2022-12-29T05:19:59;99898.44;;;13.47;72.18
19736;BME280;32064;49.310;8.646;2022-12-29T05:22:24;99891.22;;;13.49;73.45
19736;BME280;32064;49.310;8.646;2022-12-29T05:24:50;99899.69;;;13.53;72.48
19736;BME280;32064;49.310;8.646;2022-12-29T05:27:15;99892.03;;;13.50;72.30
19736;BME280;32064;49.310;8.646;2022-12-29T05:29:40;99885.09;;;13.48;72.16
19736;BME280;32064;49.310;8.646;2022-12-29T05:32:06;99898.31;;;13.48;72.46
19736;BME280;32064;49.310;8.646;2022-12-29T05:34:31;99883.16;;;13.41;72.86
19736;BME280;32064;49.310;8.646;2022-12-29T05:36:57;99884.56;;;13.45;73.49
19736;BME280;32064;49.310;8.646;2022-12-29T05:39:22;99863.25;;;13.46;72.68
19736;BME280;32064;49.310;8.646;2022-12-29T05:41:48;99874.38;;;13.50;72.49
19736;BME280;32064;49.310;8.646;2022-12-29T05:44:13;99871.34;;;13.45;72.57
19736;BME280;32064;49.310;8.646;2022-12-29T05:46:39;99881.75;;;13.46;72.32
19736;BME280;32064;49.310;8.646;2022-12-29T05:49:05;99883.69;;;13.44;71.83
19736;BME280;32064;49.310;8.646;2022-12-29T05:51:31;99879.66;;;13.50;72.35
19736;BME280;32064;49.310;8.646;2022-12-29T05:53:56;99870.91;;;13.50;72.33
19736;BME280;32064;49.310;8.646;2022-12-29T05:56:22;99883.00;;;13.52;72.58
19736;BME280;32064;49.310;8.646;2022-12-29T05:58:47;99878.72;;;13.51;72.63
19736;BME280;32064;49.310;8.646;2022-12-29T06:01:12;99877.59;;;13.54;72.20
19736;BME280;32064;49.310;8.646;2022-12-29T06:03:38;99884.94;;;13.50;71.65
19736;BME280;32064;49.310;8.646;2022-12-29T06:06:04;99889.81;;;13.55;72.38
19736;BME280;32064;49.310;8.646;2022-12-29T06:08:29;99886.34;;;13.54;71.84
19736;BME280;32064;49.310;8.646;2022-12-29T06:10:54;99872.16;;;13.55;71.61
19736;BME280;32064;49.310;8.646;2022-12-29T06:13:20;99874.78;;;13.55;72.59
19736;BME280;32064;49.310;8.646;2022-12-29T06:15:48;99872.97;;;13.56;71.99
19736;BME280;32064;49.310;8.646;2022-12-29T06:18:13;99869.38;;;13.57;72.11
19736;BME280;32064;49.310;8.646;2022-12-29T06:20:39;99860.63;;;13.56;71.96
19736;BME280;32064;49.310;8.646;2022-12-29T06:23:04;99862.28;;;13.57;71.68
19736;BME280;32064;49.310;8.646;2022-12-29T06:25:29;99866.31;;;13.61;72.16
19736;BME280;32064;49.310;8.646;2022-12-29T06:27:57;99866.31;;;13.61;71.35
19736;BME280;32064;49.310;8.646;2022-12-29T06:30:23;99857.25;;;13.64;70.63
19736;BME280;32064;49.310;8.646;2022-12-29T06:32:48;99850.19;;;13.64;71.70
19736;BME280;32064;49.310;8.646;2022-12-29T06:35:14;99860.06;;;13.62;71.67
19736;BME280;32064;49.310;8.646;2022-12-29T06:37:39;99856.59;;;13.62;70.97
19736;BME280;32064;49.310;8.646;2022-12-29T06:40:05;99852.69;;;13.66;70.64
19736;BME280;32064;49.310;8.646;2022-12-29T06:42:31;99856.03;;;13.68;71.09
19736;BME280;32064;49.310;8.646;2022-12-29T06:44:56;99851.41;;;13.70;70.97
19736;BME280;32064;49.310;8.646;2022-12-29T06:47:24;99839.03;;;13.70;70.56
19736;BME280;32064;49.310;8.646;2022-12-29T06:49:49;99844.47;;;13.69;70.85
19736;BME280;32064;49.310;8.646;2022-12-29T06:52:17;99849.91;;;13.67;70.79
19736;BME280;32064;49.310;8.646;2022-12-29T06:54:43;99834.59;;;13.71;70.42
19736;BME280;32064;49.310;8.646;2022-12-29T06:57:09;99847.81;;;13.71;70.65
19736;BME280;32064;49.310;8.646;2022-12-29T06:59:34;99848.34;;;13.75;70.77
19736;BME280;32064;49.310;8.646;2022-12-29T07:01:59;99839.44;;;13.76;70.59
19736;BME280;32064;49.310;8.646;2022-12-29T07:04:27;99855.88;;;13.79;70.18
19736;BME280;32064;49.310;8.646;2022-12-29T07:06:52;99852.22;;;13.80;70.41
19736;BME280;32064;49.310;8.646;2022-12-29T07:09:18;99850.00;;;13.76;70.51
19736;BME280;32064;49.310;8.646;2022-12-29T07:11:43;99858.22;;;13.82;69.77
19736;BME280;32064;49.310;8.646;2022-12-29T07:14:10;99855.59;;;13.82;69.51
19736;BME280;32064;49.310;8.646;2022-12-29T07:16:36;99851.41;;;13.80;68.80
19736;BME280;32064;49.310;8.646;2022-12-29T07:19:02;99859.75;;;13.85;69.79
19736;BME280;32064;49.310;8.646;2022-12-29T07:21:27;99855.59;;;13.82;69.51
19736;BME280;32064;49.310;8.646;2022-12-29T07:23:53;99858.94;;;13.84;69.46
19736;BME280;32064;49.310;8.646;2022-12-29T07:26:19;99863.22;;;13.85;69.75
19736;BME280;32064;49.310;8.646;2022-12-29T07:28:44;99871.28;;;13.84;69.63
19736;BME280;32064;49.310;8.646;2022-12-29T07:31:19;99877.44;;;13.84;69.50
19736;BME280;32064;49.310;8.646;2022-12-29T07:33:45;99873.81;;;13.85;69.36
19736;BME280;32064;49.310;8.646;2022-12-29T07:36:13;99872.69;;;13.88;70.07
19736;BME280;32064;49.310;8.646;2022-12-29T07:38:39;99871.69;;;13.89;69.41
19736;BME280;32064;49.310;8.646;2022-12-29T07:41:04;99873.50;;;13.88;68.88
19736;BME280;32064;49.310;8.646;2022-12-29T07:43:30;99876.28;;;13.87;68.48
19736;BME280;32064;49.310;8.646;2022-12-29T07:45:55;99875.88;;;13.91;69.13
19736;BME280;32064;49.310;8.646;2022-12-29T07:48:21;99873.78;;;13.95;69.29
19736;BME280;32064;49.310;8.646;2022-12-29T07:50:46;99872.81;;;13.96;68.96
19736;BME280;32064;49.310;8.646;2022-12-29T07:53:12;99869.34;;;13.96;68.60
19736;BME280;32064;49.310;8.646;2022-12-29T07:55:37;99869.19;;;13.97;68.79
19736;BME280;32064;49.310;8.646;2022-12-29T07:58:02;99871.69;;;13.99;69.06
19736;BME280;32064;49.310;8.646;2022-12-29T08:00:28;99875.16;;;13.99;68.53
19736;BME280;32064;49.310;8.646;2022-12-29T08:02:53;99876.81;;;14.00;68.49
19736;BME280;32064;49.310;8.646;2022-12-29T08:05:19;99882.13;;;14.00;67.95
19736;BME280;32064;49.310;8.646;2022-12-29T08:07:45;99882.66;;;14.04;68.50
19736;BME280;32064;49.310;8.646;2022-12-29T08:10:12;99885.47;;;14.02;68.50
19736;BME280;32064;49.310;8.646;2022-12-29T08:12:38;99887.00;;;14.05;68.38
19736;BME280;32064;49.310;8.646;2022-12-29T08:15:04;99896.59;;;14.06;68.22
19736;BME280;32064;49.310;8.646;2022-12-29T08:17:30;99899.38;;;14.04;67.96
19736;BME280;32064;49.310;8.646;2022-12-29T08:19:55;99897.81;;;14.11;nan
19736;BME280;32064;49.310;8.646;2022-12-29T08:22:21;99906.47;;;14.13;67.89
19736;BME280;32064;49.310;8.646;2022-12-29T08:24:46;99910.75;;;14.14;68.05
19736;BME280;32064;49.310;8.646;2022-12-29T08:27:12;99910.63;;;14.16;67.92
19736;BME280;32064;49.310;8.646;2022-12-29T08:29:37;99914.06;;;14.26;67.45
19736;BME280;32064;49.310;8.646;2022-12-29T08:32:03;99919.06;;;14.29;66.90
19736;BME280;32064;49.310;8.646;2022-12-29T08:34:30;99917.66;;;14.35;nan
19736;BME280;32064;49.310;8.646;2022-12-29T08:36:55;99924.09;;;14.32;67.21
19736;BME280;32064;49.310;8.646;2022-12-29T08:39:21;99920.88;;;14.38;66.87
19736;BME280;32064;49.310;8.646;2022-12-29T08:41:46;99914.75;;;14.38;66.51
19736;BME280;32064;49.310;8.646;2022-12-29T08:44:12;99928.38;;;14.43;66.72
19736;BME280;32064;49.310;8.646;2022-12-29T08:46:37;99934.66;;;14.42;66.19
19736;BME280;32064;49.310;8.646;2022-12-29T08:49:03;99930.06;;;14.44;65.53
19736;BME280;32064;49.310;8.646;2022-12-29T08:51:28;99923.47;;;14.48;66.28
19736;BME280;32064;49.310;8.646;2022-12-29T08:53:54;99928.50;;;14.51;66.58
19736;BME280;32064;49.310;8.646;2022-12-29T08:56:19;99928.94;;;14.56;66.23
19736;BME280;32064;49.310;8.646;2022-12-29T08:58:44;99932.41;;;14.57;65.81
19736;BME280;32064;49.310;8.646;2022-12-29T09:01:10;99929.16;;;14.63;66.15
19736;BME280;32064;49.310;8.646;2022-12-29T09:03:35;99930.41;;;14.69;65.96
19736;BME280;32064;49.310;8.646;2022-12-29T09:06:01;99934.75;;;14.70;65.99
19736;BME280;32064;49.310;8.646;2022-12-29T09:08:26;99933.03;;;14.69;65.78
19736;BME280;32064;49.310;8.646;2022-12-29T09:10:52;99927.63;;;14.70;66.33
19736;BME280;32064;49.310;8.646;2022-12-29T09:13:17;99937.78;;;14.75;65.43
19736;BME280;32064;49.310;8.646;2022-12-29T09:15:43;99936.63;;;14.77;66.03
19736;BME280;32064;49.310;8.646;2022-12-29T09:18:10;99932.13;;;14.88;65.06
19736;BME280;32064;49.310;8.646;2022-12-29T09:20:35;99937.38;;;14.97;65.81
19736;BME280;32064;49.310;8.646;2022-12-29T09:23:01;99948.66;;;14.99;65.13
19736;BME280;32064;49.310;8.646;2022-12-29T09:25:27;99944.19;;;15.00;65.16
19736;BME280;32064;49.310;8.646;2022-12-29T09:27:52;99958.88;;;14.94;64.73
19736;BME280;32064;49.310;8.646;2022-12-29T09:30:19;99963.19;;;14.95;65.22
19736;BME280;32064;49.310;8.646;2022-12-29T09:32:45;99958.31;;;14.91;65.37
19736;BME280;32064;49.310;8.646;2022-12-29T09:35:11;99959.97;;;14.92;65.14
19736;BME280;32064;49.310;8.646;2022-12-29T09:37:36;99958.19;;;14.92;66.03
19736;BME280;32064;49.310;8.646;2022-12-29T09:40:03;99960.16;;;14.90;66.12
19736;BME280;32064;49.310;8.646;2022-12-29T09:42:42;99962.41;;;14.85;66.03
19736;BME280;32064;49.310;8.646;2022-12-29T09:45:18;99968.22;;;14.89;66.40
19736;BME280;32064;49.310;8.646;2022-12-29T09:47:45;99963.78;;;14.89;66.79
19736;BME280;32064;49.310;8.646;2022-12-29T09:50:23;99957.25;;;14.84;66.50
19736;BME280;32064;49.310;8.646;2022-12-29T09:52:55;99969.09;;;14.89;66.71
19736;BME280;32064;49.310;8.646;2022-12-29T09:55:32;99973.00;;;14.85;66.30
19736;BME280;32064;49.310;8.646;2022-12-29T09:58:10;99983.75;;;14.84;66.85
19736;BME280;32064;49.310;8.646;2022-12-29T10:00:48;99985.69;;;14.81;66.88
19736;BME280;32064;49.310;8.646;2022-12-29T10:03:17;99979.91;;;14.96;67.57
19736;BME280;32064;49.310;8.646;2022-12-29T10:05:50;99970.44;;;14.93;66.45
19736;BME280;32064;49.310;8.646;2022-12-29T10:14:22;99978.50;;;15.01;67.37
19736;BME280;32064;49.310;8.646;2022-12-29T10:19:34;99991.56;;;15.13;67.19
19736;BME280;32064;49.310;8.646;2022-12-29T10:24:50;99994.91;;;15.15;67.23
19736;BME280;32064;49.310;8.646;2022-12-29T10:27:18;99986.84;;;15.07;67.18
19736;BME280;32064;49.310;8.646;2022-12-29T10:29:48;100002.19;;;15.03;67.65
19736;BME280;32064;49.310;8.646;2022-12-29T10:33:06;99992.47;;;14.94;67.30
19736;BME280;32064;49.310;8.646;2022-12-29T10:35:34;99992.75;;;14.91;68.32
19736;BME280;32064;49.310;8.646;2022-12-29T10:41:17;99994.34;;;14.84;68.11
19736;BME280;32064;49.310;8.646;2022-12-29T10:43:47;100010.53;;;14.80;68.53
19736;BME280;32064;49.310;8.646;2022-12-29T10:46:18;100002.56;;;14.80;68.80
19736;BME280;32064;49.310;8.646;2022-12-29T10:48:45;99999.06;;;14.80;68.84
19736;BME280;32064;49.310;8.646;2022-12-29T10:51:22;100003.41;;;14.81;68.29
19736;BME280;32064;49.310;8.646;2022-12-29T10:53:55;99985.72;;;14.72;68.55
19736;BME280;32064;49.310;8.646;2022-12-29T10:56:39;99991.16;;;14.70;69.24
19736;BME280;32064;49.310;8.646;2022-12-29T10:59:25;99988.63;;;14.78;69.21
19736;BME280;32064;49.310;8.646;2022-12-29T11:07:18;99995.53;;;14.99;68.23
19736;BME280;32064;49.310;8.646;2022-12-29T11:09:46;99995.38;;;15.00;68.20
19736;BME280;32064;49.310;8.646;2022-12-29T11:12:37;100004.47;;;14.98;67.82
19736;BME280;32064;49.310;8.646;2022-12-29T11:17:49;99993.56;;;15.01;67.96
19736;BME280;32064;49.310;8.646;2022-12-29T11:22:58;99995.06;;;15.31;68.02
19736;BME280;32064;49.310;8.646;2022-12-29T11:25:23;100007.16;;;15.43;67.02
19736;BME280;32064;49.310;8.646;2022-12-29T11:27:57;100000.81;;;15.54;67.51
19736;BME280;32064;49.310;8.646;2022-12-29T11:30:26;99996.69;;;15.69;67.58
19736;BME280;32064;49.310;8.646;2022-12-29T11:32:53;100004.13;;;15.84;66.98
19736;BME280;32064;49.310;8.646;2022-12-29T11:35:36;100006.84;;;15.92;66.41
19736;BME280;32064;49.310;8.646;2022-12-29T11:38:04;100018.38;;;16.01;66.04
19736;BME280;32064;49.310;8.646;2022-12-29T11:40:30;99998.06;;;15.91;66.07
19736;BME280;32064;49.310;8.646;2022-12-29T11:42:59;100011.31;;;15.91;65.89
19736;BME280;32064;49.310;8.646;2022-12-29T11:45:36;100006.94;;;16.00;65.25
19736;BME280;32064;49.310;8.646;2022-12-29T11:48:18;100001.06;;;16.14;65.94
19736;BME280;32064;49.310;8.646;2022-12-29T11:50:50;99991.53;;;16.04;65.33
19736;BME280;32064;49.310;8.646;2022-12-29T11:53:21;99987.97;;;15.95;66.47
19736;BME280;32064;49.310;8.646;2022-12-29T11:55:56;100006.31;;;15.88;65.84
19736;BME280;32064;49.310;8.646;2022-12-29T11:58:31;99991.47;;;15.78;65.58
19736;BME280;32064;49.310;8.646;2022-12-29T12:01:01;99996.16;;;15.84;66.17
19736;BME280;32064;49.310;8.646;2022-12-29T12:03:30;99992.81;;;16.00;66.16
19736;BME280;32064;49.310;8.646;2022-12-29T12:06:02;99979.69;;;15.98;65.80
19736;BME280;32064;49.310;8.646;2022-12-29T12:08:37;99982.59;;;15.87;66.10
19736;BME280;32064;49.310;8.646;2022-12-29T12:11:27;99983.19;;;15.81;65.55
19736;BME280;32064;49.310;8.646;2022-12-29T12:14:20;99966.75;;;15.77;66.71
19736;BME280;32064;49.310;8.646;2022-12-29T12:16:51;99981.16;;;15.75;66.99
19736;BME280;32064;49.310;8.646;2022-12-29T12:19:44;99979.53;;;15.64;65.43
19736;BME280;32064;49.310;8.646;2022-12-29T12:22:34;99980.66;;;15.61;66.92
19736;BME280;32064;49.310;8.646;2022-12-29T12:27:48;99976.88;;;15.64;66.35
19736;BME280;32064;49.310;8.646;2022-12-29T12:30:20;99968.09;;;15.63;66.84
19736;BME280;32064;49.310;8.646;2022-12-29T12:35:43;99982.91;;;15.56;66.14
19736;BME280;32064;49.310;8.646;2022-12-29T12:41:12;99960.56;;;15.59;65.48
19736;BME280;32064;49.310;8.646;2022-12-29T12:43:41;99968.72;;;15.75;66.24
19736;BME280;32064;49.310;8.646;2022-12-29T12:49:20;99962.22;;;15.69;65.74
19736;BME280;32064;49.310;8.646;2022-12-29T12:54:48;99945.50;;;15.59;65.80
19736;BME280;32064;49.310;8.646;2022-12-29T12:57:32;99945.97;;;15.55;65.52
19736;BME280;32064;49.310;8.646;2022-12-29T13:00:08;99937.44;;;15.51;66.09
19736;BME280;32064;49.310;8.646;2022-12-29T13:02:45;99930.81;;;15.47;65.74
19736;BME280;32064;49.310;8.646;2022-12-29T13:08:13;99982.22;;;15.36;68.83
19736;BME280;32064;49.310;8.646;2022-12-29T13:19:08;99965.38;;;15.00;74.25
19736;BME280;32064;49.310;8.646;2022-12-29T13:24:19;99951.84;;;15.03;75.49
19736;BME280;32064;49.310;8.646;2022-12-29T13:27:24;99958.09;;;14.84;75.92
19736;BME280;32064;49.310;8.646;2022-12-29T13:35:35;99960.97;;;14.91;76.75
19736;BME280;32064;49.310;8.646;2022-12-29T13:40:48;99957.78;;;14.87;76.98
19736;BME280;32064;49.310;8.646;2022-12-29T13:43:16;99963.22;;;14.86;77.57
19736;BME280;32064;49.310;8.646;2022-12-29T13:45:44;99961.03;;;14.81;77.48
19736;BME280;32064;49.310;8.646;2022-12-29T13:48:23;99964.28;;;14.75;77.48
19736;BME280;32064;49.310;8.646;2022-12-29T13:50:55;99974.88;;;14.75;78.47
19736;BME280;32064;49.310;8.646;2022-12-29T13:56:15;99965.53;;;14.71;78.00
19736;BME280;32064;49.310;8.646;2022-12-29T13:59:11;99965.16;;;14.56;78.64
19736;BME280;32064;49.310;8.646;2022-12-29T14:08:03;99972.69;;;14.41;79.36
19736;BME280;32064;49.310;8.646;2022-12-29T14:10:37;99971.28;;;14.37;79.14
19736;BME280;32064;49.310;8.646;2022-12-29T14:13:09;99976.31;;;14.40;79.48
19736;BME280;32064;49.310;8.646;2022-12-29T14:15:38;99973.38;;;14.43;79.31
19736;BME280;32064;49.310;8.646;2022-12-29T14:18:18;99981.59;;;14.40;79.29
19736;BME280;32064;49.310;8.646;2022-12-29T14:20:54;99973.00;;;14.38;79.24
19736;BME280;32064;49.310;8.646;2022-12-29T14:23:38;99971.59;;;14.34;79.52
19736;BME280;32064;49.310;8.646;2022-12-29T14:28:32;99979.53;;;14.34;79.70
19736;BME280;32064;49.310;8.646;2022-12-29T14:31:00;99986.50;;;14.25;79.86
19736;BME280;32064;49.310;8.646;2022-12-29T14:33:29;99989.72;;;14.19;80.32
19736;BME280;32064;49.310;8.646;2022-12-29T14:35:55;99995.41;;;14.14;80.06
19736;BME280;32064;49.310;8.646;2022-12-29T14:38:23;99996.97;;;14.07;81.09
19736;BME280;32064;49.310;8.646;2022-12-29T14:40:50;100002.25;;;14.07;81.57
19736;BME280;32064;49.310;8.646;2022-12-29T14:43:26;100013.25;;;14.03;81.98
19736;BME280;32064;49.310;8.646;2022-12-29T14:45:58;100012.97;;;14.06;81.59
19736;BME280;32064;49.310;8.646;2022-12-29T14:50:49;100038.44;;;13.97;81.81
19736;BME280;32064;49.310;8.646;2022-12-29T14:53:41;100036.09;;;13.84;82.55
19736;BME280;32064;49.310;8.646;2022-12-29T14:56:09;100039.28;;;13.88;82.44
19736;BME280;32064;49.310;8.646;2022-12-29T14:58:41;100034.81;;;13.88;82.42
19736;BME280;32064;49.310;8.646;2022-12-29T15:01:22;100044.41;;;13.80;82.08
19736;BME280;32064;49.310;8.646;2022-12-29T15:03:50;100045.81;;;13.84;82.88